Valborg — OFNR — position and weather

sailwx.info

Track history (hours):
 
Tides and Currents Weather Stations Pressure Air Temp Water Temp Dewpoint Dewpoint Depression Visibility Wind Speed Wind Dir Waves Ship Positions

Valborg

Last reported at 2017-Jun-24 00:00 UTC. Time now 2017-Jun-23 23:59 UTC.
Position N 57°16' E 016°27'.

Length 30 m; draft 2.4 m.

Type: Sailing vessel. MMSI: 230108270.

Date/timePositionNaut miles runAvg speedWind from/ knotsBaromVisibWave heightAir tempDewpointWater temp
2017-Jun-24 00:00N 57°16' E 016°27'0 0.0
2017-Jun-23 23:30N 57°16' E 016°27'0 0.0
2017-Jun-23 23:00N 57°16' E 016°27'0 0.0
2017-Jun-23 22:30N 57°16' E 016°27'0 0.0
2017-Jun-23 22:00N 57°16' E 016°27'0 0.0
2017-Jun-23 21:30N 57°16' E 016°27'0 0.0
2017-Jun-23 21:00N 57°16' E 016°27'0 0.0
2017-Jun-23 20:27N 57°16' E 016°27'0 0.0
2017-Jun-23 20:00N 57°16' E 016°27'0 0.0
2017-Jun-23 19:30N 57°16' E 016°27'0 0.0
2017-Jun-23 19:00N 57°16' E 016°27'0 0.0
2017-Jun-23 18:30N 57°16' E 016°27'0 0.0
2017-Jun-23 18:00N 57°16' E 016°27'0 0.0
2017-Jun-23 17:30N 57°16' E 016°27'0 0.0
2017-Jun-23 17:00N 57°16' E 016°27'0 0.0
2017-Jun-23 16:30N 57°16' E 016°27'0 0.0
2017-Jun-23 16:00N 57°16' E 016°27'0 0.0
2017-Jun-23 15:30N 57°16' E 016°27'2 3.6
2017-Jun-23 15:00N 57°16' E 016°31'3 6.5
2017-Jun-23 14:30N 57°16' E 016°37'156 5.5
2017-Jun-22 10:22N 58°60' E 020°17'1 3.2
2017-Jun-22 09:59N 59°01' E 020°18'3 3.7
2017-Jun-22 09:15N 59°03' E 020°22'1 4.1
2017-Jun-22 09:01N 59°04' E 020°23'3 5.2
2017-Jun-22 08:30N 59°05' E 020°27'3 6.2
2017-Jun-22 08:00N 59°08' E 020°31'3 6.8
2017-Jun-22 07:30N 59°10' E 020°35'3 6.6
2017-Jun-22 07:00N 59°13' E 020°39'4 7.2
2017-Jun-22 06:30N 59°15' E 020°44'4 7.1
2017-Jun-22 06:00N 59°18' E 020°48'3 7.1
2017-Jun-22 05:31N 59°21' E 020°53'3 6.0
2017-Jun-22 05:00N 59°23' E 020°56'3 6.5
2017-Jun-22 04:30N 59°26' E 020°59'3 6.3
2017-Jun-22 04:00N 59°29' E 021°03'3 6.8
2017-Jun-22 03:30N 59°31' E 021°07'3 6.7
2017-Jun-22 03:00N 59°34' E 021°11'3 5.8
2017-Jun-22 02:31N 59°36' E 021°14'3 5.1
2017-Jun-22 02:01N 59°39' E 021°16'2 4.8
2017-Jun-22 01:30N 59°41' E 021°18'2 5.0
2017-Jun-22 01:01N 59°43' E 021°20'2 4.9
2017-Jun-22 00:30N 59°46' E 021°21'3 5.1
2017-Jun-22 00:00N 59°48' E 021°21'2 3.6
2017-Jun-21 23:31N 59°50' E 021°22'3 5.9
2017-Jun-21 23:00N 59°51' E 021°28'3 5.5
2017-Jun-21 22:31N 59°51' E 021°33'3 5.5
2017-Jun-21 22:00N 59°52' E 021°39'3 5.8
2017-Jun-21 21:31N 59°52' E 021°44'3 6.2
2017-Jun-21 21:00N 59°52' E 021°50'3 5.9
2017-Jun-21 20:30N 59°52' E 021°56'3 5.8
2017-Jun-21 20:00N 59°53' E 022°02'3 5.7
2017-Jun-21 19:31N 59°53' E 022°08'3 5.8
2017-Jun-21 19:01N 59°53' E 022°13'3 5.8
2017-Jun-21 18:31N 59°53' E 022°19'3 5.5
2017-Jun-21 18:00N 59°53' E 022°25'2 4.5
2017-Jun-21 17:31N 59°55' E 022°25'0 0.0
2017-Jun-21 16:59N 59°55' E 022°25'0 0.0
2017-Jun-21 16:29N 59°55' E 022°25'0 0.0
2017-Jun-21 15:59N 59°55' E 022°25'0 0.0
2017-Jun-21 15:29N 59°55' E 022°25'0 0.0
2017-Jun-21 14:59N 59°55' E 022°25'0 0.0
2017-Jun-21 14:00N 59°55' E 022°25'0 0.0
2017-Jun-21 13:30N 59°55' E 022°25'0 0.0
2017-Jun-21 13:00N 59°55' E 022°25'1 1.6
2017-Jun-21 12:30N 59°54' E 022°25'2 4.1
2017-Jun-21 12:00N 59°54' E 022°29'3 5.3
2017-Jun-21 11:30N 59°55' E 022°34'2 4.3
2017-Jun-21 11:00N 59°55' E 022°38'2 4.5
2017-Jun-21 10:30N 59°54' E 022°42'2 4.5
2017-Jun-21 10:00N 59°53' E 022°46'2 4.6
2017-Jun-21 09:30N 59°52' E 022°50'2 4.1
2017-Jun-21 09:00N 59°51' E 022°53'2 4.9
2017-Jun-21 08:30N 59°48' E 022°51'2 4.4
2017-Jun-21 08:00N 59°48' E 022°56'2 4.3
2017-Jun-21 07:30N 59°48' E 022°60'2 4.5
2017-Jun-21 07:00N 59°48' E 023°04'2 4.4
2017-Jun-21 06:30N 59°48' E 023°09'2 4.6
2017-Jun-21 06:00N 59°48' E 023°13'3 5.5
2017-Jun-21 05:30N 59°50' E 023°17'3 5.2
2017-Jun-21 05:00N 59°52' E 023°22'3 5.6
2017-Jun-21 04:30N 59°51' E 023°27'3 5.9
2017-Jun-21 04:00N 59°52' E 023°33'3 5.6
2017-Jun-21 03:30N 59°53' E 023°38'3 6.2
2017-Jun-21 03:00N 59°54' E 023°43'3 6.1
2017-Jun-21 02:30N 59°56' E 023°48'3 6.3
2017-Jun-21 02:00N 59°58' E 023°52'3 5.5
2017-Jun-21 01:30N 59°59' E 023°57'3 5.8
2017-Jun-21 01:00N 59°59' E 024°03'3 5.7
2017-Jun-21 00:30N 59°57' E 024°08'3 5.2
2017-Jun-21 00:01N 59°56' E 024°13'2 4.7
2017-Jun-20 23:30N 59°56' E 024°17'2 4.6
2017-Jun-20 23:00N 59°56' E 024°22'3 5.3
2017-Jun-20 22:30N 59°57' E 024°27'3 5.7
2017-Jun-20 22:00N 59°59' E 024°31'3 6.1
2017-Jun-20 21:30N 60°01' E 024°35'3 6.2
2017-Jun-20 21:00N 60°03' E 024°40'3 6.3
2017-Jun-20 20:30N 60°05' E 024°45'3 6.0
2017-Jun-20 20:00N 60°06' E 024°51'3 5.7
2017-Jun-20 19:30N 60°08' E 024°55'3 5.5
2017-Jun-20 19:00N 60°10' E 024°59'1 1.2
2017-Jun-20 18:29N 60°10' E 024°58'0 0.0
2017-Jun-20 17:58N 60°10' E 024°58'0 0.0
2017-Jun-20 17:28N 60°10' E 024°58'0 0.0
2017-Jun-20 16:58N 60°10' E 024°58'0 0.0
2017-Jun-20 16:28N 60°10' E 024°58'0 0.0
2017-Jun-20 15:58N 60°10' E 024°58'0 0.0
2017-Jun-20 15:28N 60°10' E 024°58'0 0.0
2017-Jun-20 14:58N 60°10' E 024°58'0 0.0
2017-Jun-20 13:58N 60°10' E 024°58'0 0.0
2017-Jun-20 13:28N 60°10' E 024°58'0 0.0
2017-Jun-20 12:58N 60°10' E 024°58'0 0.0
2017-Jun-20 12:28N 60°10' E 024°58'0 0.0
2017-Jun-20 11:58N 60°10' E 024°58'0 0.0
2017-Jun-20 11:28N 60°10' E 024°58'0 0.0
2017-Jun-20 10:58N 60°10' E 024°58'0 0.0
2017-Jun-20 10:28N 60°10' E 024°58'0 0.0
2017-Jun-20 09:58N 60°10' E 024°58'0 0.0
2017-Jun-20 09:28N 60°10' E 024°58'0 0.0
2017-Jun-20 08:58N 60°10' E 024°58'0 0.0
2017-Jun-20 08:28N 60°10' E 024°58'0 0.0
2017-Jun-20 07:58N 60°10' E 024°58'0 0.0
2017-Jun-20 07:28N 60°10' E 024°58'0 0.0
2017-Jun-20 06:58N 60°10' E 024°58'0 0.0
2017-Jun-20 06:28N 60°10' E 024°58'0 0.0
2017-Jun-20 05:58N 60°10' E 024°58'0 0.0
2017-Jun-20 05:28N 60°10' E 024°58'0 0.0
2017-Jun-20 04:58N 60°10' E 024°58'0 0.0
2017-Jun-20 04:28N 60°10' E 024°58'0 0.0
2017-Jun-20 03:58N 60°10' E 024°58'0 0.0
2017-Jun-20 03:25N 60°10' E 024°58'0 0.0
2017-Jun-20 02:58N 60°10' E 024°58'0 0.0
2017-Jun-20 02:28N 60°10' E 024°58'0 0.0
2017-Jun-20 01:58N 60°10' E 024°58'0 0.0
2017-Jun-20 01:28N 60°10' E 024°58'0 0.0
2017-Jun-20 00:58N 60°10' E 024°58'0 0.0
2017-Jun-20 00:28N 60°10' E 024°58'0 0.0
2017-Jun-19 23:58N 60°10' E 024°58'0 0.0
2017-Jun-19 23:28N 60°10' E 024°58'0 0.0
2017-Jun-19 22:58N 60°10' E 024°58'0 0.0
2017-Jun-19 22:28N 60°10' E 024°58'0 0.0
2017-Jun-19 21:58N 60°10' E 024°58'0 0.0
2017-Jun-19 21:28N 60°10' E 024°58'0 0.0
2017-Jun-19 20:58N 60°10' E 024°58'0 0.0
2017-Jun-19 20:28N 60°10' E 024°58'0 0.0
2017-Jun-19 20:00N 60°10' E 024°58'0 0.0
2017-Jun-19 19:29N 60°10' E 024°58'0 0.0
2017-Jun-19 18:58N 60°10' E 024°58'0 0.0
2017-Jun-19 18:28N 60°10' E 024°58'0 0.0
2017-Jun-19 17:58N 60°10' E 024°58'0 0.0
2017-Jun-19 17:28N 60°10' E 024°58'0 0.0
2017-Jun-19 16:58N 60°10' E 024°58'0 0.0
2017-Jun-19 16:28N 60°10' E 024°58'0 0.0
2017-Jun-19 15:58N 60°10' E 024°58'0 0.0
2017-Jun-19 15:25N 60°10' E 024°58'0 0.0
2017-Jun-19 14:58N 60°10' E 024°58'0 0.0
2017-Jun-19 13:58N 60°10' E 024°58'0 0.0
2017-Jun-19 13:28N 60°10' E 024°58'0 0.0
2017-Jun-19 12:58N 60°10' E 024°58'0 0.0
2017-Jun-19 12:28N 60°10' E 024°58'0 0.0
2017-Jun-19 11:58N 60°10' E 024°58'0 0.0
2017-Jun-19 11:28N 60°10' E 024°58'0 0.0
2017-Jun-19 10:58N 60°10' E 024°58'0 0.0
2017-Jun-19 10:28N 60°10' E 024°58'0 0.0
2017-Jun-19 09:58N 60°10' E 024°58'0 0.0
2017-Jun-19 09:28N 60°10' E 024°58'0 0.0
2017-Jun-19 08:58N 60°10' E 024°58'0 0.0
2017-Jun-19 08:28N 60°10' E 024°58'0 0.0
2017-Jun-19 07:58N 60°10' E 024°58'0 0.0
2017-Jun-19 07:28N 60°10' E 024°58'0 0.0
2017-Jun-19 06:58N 60°10' E 024°58'0 0.0
2017-Jun-19 06:28N 60°10' E 024°58'0 0.0
2017-Jun-19 05:58N 60°10' E 024°58'0 0.0
2017-Jun-19 05:28N 60°10' E 024°58'0 0.0
2017-Jun-19 04:58N 60°10' E 024°58'0 0.0
2017-Jun-19 04:28N 60°10' E 024°58'0 0.0
2017-Jun-19 03:58N 60°10' E 024°58'0 0.0
2017-Jun-19 03:28N 60°10' E 024°58'0 0.0
2017-Jun-19 02:58N 60°10' E 024°58'0 0.0
2017-Jun-19 02:28N 60°10' E 024°58'0 0.0
2017-Jun-19 01:58N 60°10' E 024°58'0 0.0
2017-Jun-19 01:25N 60°10' E 024°58'0 0.0
2017-Jun-19 00:58N 60°10' E 024°58'0 0.0
2017-Jun-19 00:28N 60°10' E 024°58'0 0.0
2017-Jun-18 23:55N 60°10' E 024°58'0 0.0
2017-Jun-18 23:28N 60°10' E 024°58'0 0.0
2017-Jun-18 22:58N 60°10' E 024°58'0 0.0
2017-Jun-18 22:28N 60°10' E 024°58'0 0.0
2017-Jun-18 21:58N 60°10' E 024°58'0 0.0
2017-Jun-18 21:28N 60°10' E 024°58'0 0.0
2017-Jun-18 20:58N 60°10' E 024°58'0 0.0
2017-Jun-18 20:28N 60°10' E 024°58'0 0.0
2017-Jun-18 19:58N 60°10' E 024°58'0 0.0
2017-Jun-18 19:25N 60°10' E 024°58'0 0.0
2017-Jun-18 18:58N 60°10' E 024°58'0 0.0
2017-Jun-18 18:28N 60°10' E 024°58'0 0.0
2017-Jun-18 17:55N 60°10' E 024°58'0 0.0
2017-Jun-18 17:28N 60°10' E 024°58'0 0.0
2017-Jun-18 16:58N 60°10' E 024°58'0 0.0
2017-Jun-18 16:28N 60°10' E 024°58'0 0.0
2017-Jun-18 15:58N 60°10' E 024°58'0 0.0
2017-Jun-18 15:25N 60°10' E 024°58'0 0.0
2017-Jun-18 14:58N 60°10' E 024°58'0 0.0
2017-Jun-18 13:58N 60°10' E 024°58'0 0.0
2017-Jun-18 13:28N 60°10' E 024°58'0 0.0
2017-Jun-18 12:58N 60°10' E 024°58'0 0.0
2017-Jun-18 12:28N 60°10' E 024°58'0 0.0
2017-Jun-18 11:58N 60°10' E 024°58'0 0.0
2017-Jun-18 11:28N 60°10' E 024°58'0 0.0
2017-Jun-18 10:58N 60°10' E 024°58'0 0.0
2017-Jun-18 10:28N 60°10' E 024°58'0 0.0
2017-Jun-18 09:58N 60°10' E 024°58'0 0.0
2017-Jun-18 09:25N 60°10' E 024°58'0 0.0
2017-Jun-18 08:58N 60°10' E 024°58'0 0.0
2017-Jun-18 08:28N 60°10' E 024°58'0 0.0
2017-Jun-18 07:58N 60°10' E 024°58'0 0.0
2017-Jun-18 07:25N 60°10' E 024°58'0 0.0
2017-Jun-18 06:58N 60°10' E 024°58'0 0.0
2017-Jun-18 06:28N 60°10' E 024°58'0 0.0
2017-Jun-18 05:58N 60°10' E 024°58'0 0.0
2017-Jun-18 05:28N 60°10' E 024°58'0 0.0
2017-Jun-18 04:58N 60°10' E 024°58'0 0.0
2017-Jun-18 04:28N 60°10' E 024°58'0 0.0
2017-Jun-18 03:58N 60°10' E 024°58'0 0.0
2017-Jun-18 03:28N 60°10' E 024°58'0 0.0
2017-Jun-18 02:58N 60°10' E 024°58'0 0.0
2017-Jun-18 02:28N 60°10' E 024°58'0 0.0
2017-Jun-18 01:58N 60°10' E 024°58'0 0.0
2017-Jun-18 01:28N 60°10' E 024°58'0 0.0
2017-Jun-18 00:58N 60°10' E 024°58'0 0.0
2017-Jun-18 00:28N 60°10' E 024°58'0 0.0
2017-Jun-17 23:55N 60°10' E 024°58'0 0.0
2017-Jun-17 23:28N 60°10' E 024°58'0 0.0
2017-Jun-17 22:58N 60°10' E 024°58'0 0.0
2017-Jun-17 22:28N 60°10' E 024°58'0 0.0
2017-Jun-17 21:58N 60°10' E 024°58'0 0.0
2017-Jun-17 21:25N 60°10' E 024°58'0 0.0
2017-Jun-17 20:58N 60°10' E 024°58'0 0.0
2017-Jun-17 20:28N 60°10' E 024°58'0 0.0
2017-Jun-17 19:58N 60°10' E 024°58'0 0.0
2017-Jun-17 19:29N 60°10' E 024°58'0 0.0
2017-Jun-17 18:58N 60°10' E 024°58'0 0.0
2017-Jun-17 18:28N 60°10' E 024°58'0 0.0
2017-Jun-17 17:58N 60°10' E 024°58'0 0.0
2017-Jun-17 17:28N 60°10' E 024°58'0 0.0
2017-Jun-17 16:58N 60°10' E 024°58'0 0.0
2017-Jun-17 16:28N 60°10' E 024°58'0 0.0
2017-Jun-17 15:55N 60°10' E 024°58'0 0.0
2017-Jun-17 15:28N 60°10' E 024°58'0 0.0
2017-Jun-17 14:58N 60°10' E 024°58'0 0.0
2017-Jun-17 14:28N 60°10' E 024°58'0 0.0
2017-Jun-17 13:28N 60°10' E 024°58'0 0.0
2017-Jun-17 12:58N 60°10' E 024°58'0 0.0
2017-Jun-17 12:28N 60°10' E 024°58'0 0.0
2017-Jun-17 11:58N 60°10' E 024°58'0 0.0
2017-Jun-17 11:28N 60°10' E 024°58'0 0.0
2017-Jun-17 10:58N 60°10' E 024°58'0 0.0
2017-Jun-17 10:25N 60°10' E 024°58'0 0.0
2017-Jun-17 09:58N 60°10' E 024°58'0 0.0
2017-Jun-17 09:28N 60°10' E 024°58'0 0.0
2017-Jun-17 08:58N 60°10' E 024°58'0 0.0
2017-Jun-17 08:25N 60°10' E 024°58'0 0.0
2017-Jun-17 07:58N 60°10' E 024°58'0 0.0
2017-Jun-17 07:28N 60°10' E 024°58'0 0.0
2017-Jun-17 06:58N 60°10' E 024°58'0 0.0
2017-Jun-17 06:28N 60°10' E 024°58'0 0.0
2017-Jun-17 05:58N 60°10' E 024°58'0 0.0
2017-Jun-17 05:25N 60°10' E 024°58'0 0.0
2017-Jun-17 04:58N 60°10' E 024°58'0 0.0
2017-Jun-17 04:28N 60°10' E 024°58'0 0.0
2017-Jun-17 03:58N 60°10' E 024°58'0 0.0
2017-Jun-17 03:28N 60°10' E 024°58'0 0.0
2017-Jun-17 02:58N 60°10' E 024°58'0 0.0
2017-Jun-17 02:28N 60°10' E 024°58'0 0.0
2017-Jun-17 01:58N 60°10' E 024°58'0 0.0
2017-Jun-17 01:28N 60°10' E 024°58'0 0.0
2017-Jun-17 00:58N 60°10' E 024°58'0 0.0
2017-Jun-17 00:28N 60°10' E 024°58'0 0.0
2017-Jun-16 23:58N 60°10' E 024°58'0 0.0
2017-Jun-16 23:29N 60°10' E 024°58'0 0.0
2017-Jun-16 22:58N 60°10' E 024°58'0 0.0
2017-Jun-16 22:28N 60°10' E 024°58'0 0.0
2017-Jun-16 21:55N 60°10' E 024°58'0 0.0
2017-Jun-16 21:25N 60°10' E 024°58'0 0.0
2017-Jun-16 20:58N 60°10' E 024°58'0 0.0
2017-Jun-16 20:28N 60°10' E 024°58'0 0.0
2017-Jun-16 19:58N 60°10' E 024°58'0 0.0
2017-Jun-16 19:28N 60°10' E 024°58'0 0.0
2017-Jun-16 18:58N 60°10' E 024°58'0 0.0
2017-Jun-16 18:28N 60°10' E 024°58'0 0.0
2017-Jun-16 17:58N 60°10' E 024°58'0 0.0
2017-Jun-16 17:28N 60°10' E 024°58'0 0.0
2017-Jun-16 16:58N 60°10' E 024°58'0 0.0
2017-Jun-16 16:28N 60°10' E 024°58'0 0.0
2017-Jun-16 15:58N 60°10' E 024°58'0 0.0
2017-Jun-16 15:28N 60°10' E 024°58'0 0.0
2017-Jun-16 14:58N 60°10' E 024°58'0 0.0
2017-Jun-16 13:58N 60°10' E 024°58'0 0.0
2017-Jun-16 13:26N 60°10' E 024°58'0 0.0
2017-Jun-16 12:58N 60°10' E 024°58'0 0.0
2017-Jun-16 12:28N 60°10' E 024°58'0 0.0
2017-Jun-16 11:58N 60°10' E 024°58'0 0.0
2017-Jun-16 11:28N 60°10' E 024°58'0 0.0
2017-Jun-16 10:58N 60°10' E 024°58'0 0.0
2017-Jun-16 10:28N 60°10' E 024°58'0 0.0
2017-Jun-16 09:58N 60°10' E 024°58'0 0.0
2017-Jun-16 09:28N 60°10' E 024°58'0 0.0
2017-Jun-16 08:58N 60°10' E 024°58'0 0.0
2017-Jun-16 08:28N 60°10' E 024°58'0 0.0
2017-Jun-16 07:58N 60°10' E 024°58'0 0.0
2017-Jun-16 07:28N 60°10' E 024°58'0 0.0
2017-Jun-16 06:55N 60°10' E 024°58'0 0.0
2017-Jun-16 06:28N 60°10' E 024°58'0 0.0
2017-Jun-16 05:58N 60°10' E 024°58'0 0.0
2017-Jun-16 05:22N 60°10' E 024°58'0 0.0
2017-Jun-16 04:58N 60°10' E 024°58'0 0.0
2017-Jun-16 04:28N 60°10' E 024°58'0 0.0
2017-Jun-16 03:58N 60°10' E 024°58'0 0.0
2017-Jun-16 03:28N 60°10' E 024°58'0 0.0
2017-Jun-16 02:58N 60°10' E 024°58'0 0.0
2017-Jun-16 02:28N 60°10' E 024°58'0 0.0
2017-Jun-16 01:58N 60°10' E 024°58'0 0.0
2017-Jun-16 01:28N 60°10' E 024°58'0 0.0
2017-Jun-16 00:58N 60°10' E 024°58'0 0.0
2017-Jun-16 00:28N 60°10' E 024°58'0 0.0
2017-Jun-15 23:58N 60°10' E 024°58'0 0.0
2017-Jun-15 23:28N 60°10' E 024°58'0 0.0
2017-Jun-15 22:58N 60°10' E 024°58'0 0.0
2017-Jun-15 22:28N 60°10' E 024°58'0 0.0
2017-Jun-15 21:58N 60°10' E 024°58'0 0.0
2017-Jun-15 21:28N 60°10' E 024°58'0 0.0
2017-Jun-15 20:58N 60°10' E 024°58'0 0.0
2017-Jun-15 20:28N 60°10' E 024°58'0 0.0
2017-Jun-15 19:58N 60°10' E 024°58'0 0.0
2017-Jun-15 19:28N 60°10' E 024°58'0 0.0
2017-Jun-15 18:58N 60°10' E 024°58'0 0.0
2017-Jun-15 18:28N 60°10' E 024°58'0 0.0
2017-Jun-15 17:58N 60°10' E 024°58'0 0.0
2017-Jun-15 17:28N 60°10' E 024°58'0 0.0
2017-Jun-15 16:58N 60°10' E 024°58'0 0.0
2017-Jun-15 16:30N 60°10' E 024°58'0 0.0
2017-Jun-15 15:58N 60°10' E 024°58'0 0.0
2017-Jun-15 15:29N 60°10' E 024°58'0 0.0
2017-Jun-15 14:58N 60°10' E 024°58'0 0.0
2017-Jun-15 13:58N 60°10' E 024°58'0 0.0
2017-Jun-15 13:28N 60°10' E 024°58'0 0.0
2017-Jun-15 12:58N 60°10' E 024°58'0 0.0
2017-Jun-15 12:30N 60°10' E 024°58'0 0.0
2017-Jun-15 11:59N 60°10' E 024°58'0 0.0
2017-Jun-15 11:28N 60°10' E 024°58'0 0.0
2017-Jun-15 11:00N 60°10' E 024°58'0 0.0
2017-Jun-15 10:28N 60°10' E 024°58'0 0.0
2017-Jun-15 09:58N 60°10' E 024°58'0 0.0
2017-Jun-14 19:47N 60°10' E 024°58'0 0.0
2017-Jun-14 19:29N 60°10' E 024°58'0 0.0
2017-Jun-14 18:58N 60°10' E 024°58'0 0.0
2017-Jun-14 18:29N 60°10' E 024°58'0 0.0
2017-Jun-14 18:00N 60°10' E 024°58'0 0.0
2017-Jun-14 17:28N 60°10' E 024°58'0 0.0
2017-Jun-14 16:58N 60°10' E 024°58'0 0.0
2017-Jun-14 16:28N 60°10' E 024°58'0 0.0
2017-Jun-14 15:58N 60°10' E 024°58'0 0.0
2017-Jun-14 15:28N 60°10' E 024°58'0 0.0
2017-Jun-14 14:52N 60°10' E 024°58'0 0.0
2017-Jun-14 14:28N 60°10' E 024°58'0 0.0
2017-Jun-14 13:28N 60°10' E 024°58'0 0.0
2017-Jun-14 12:52N 60°10' E 024°58'0 0.0
2017-Jun-14 12:28N 60°10' E 024°58'0 0.0
2017-Jun-14 11:58N 60°10' E 024°58'0 0.0
2017-Jun-14 11:25N 60°10' E 024°58'0 0.0
2017-Jun-14 10:55N 60°10' E 024°58'0 0.0
2017-Jun-14 10:28N 60°10' E 024°58'0 0.0
2017-Jun-14 09:58N 60°10' E 024°58'0 0.0
2017-Jun-14 09:28N 60°10' E 024°58'0 0.0
2017-Jun-14 08:58N 60°10' E 024°58'0 0.0
2017-Jun-14 08:22N 60°10' E 024°58'0 0.0
2017-Jun-14 07:58N 60°10' E 024°58'0 0.0
2017-Jun-14 07:28N 60°10' E 024°58'0 0.0
2017-Jun-14 06:58N 60°10' E 024°58'0 0.0
2017-Jun-14 06:25N 60°10' E 024°58'0 0.0
2017-Jun-14 05:58N 60°10' E 024°58'0 0.0
2017-Jun-14 05:28N 60°10' E 024°58'0 0.0
2017-Jun-14 04:58N 60°10' E 024°58'0 0.0
2017-Jun-14 04:28N 60°10' E 024°58'0 0.0
2017-Jun-14 03:58N 60°10' E 024°58'0 0.0
2017-Jun-14 03:28N 60°10' E 024°58'0 0.0
2017-Jun-14 02:58N 60°10' E 024°58'0 0.0
2017-Jun-14 02:28N 60°10' E 024°58'0 0.0
2017-Jun-14 01:55N 60°10' E 024°58'0 0.0
2017-Jun-14 01:28N 60°10' E 024°58'0 0.0
2017-Jun-14 00:58N 60°10' E 024°58'0 0.0
2017-Jun-14 00:28N 60°10' E 024°58'  
Track history (hours):
 
Tides and Currents Weather Stations Pressure Air Temp Water Temp Dewpoint Dewpoint Depression Visibility Wind Speed Wind Dir Waves Ship Positions

Valborg

Last reported at 2017-Jun-24 00:00 UTC. Time now 2017-Jun-23 23:59 UTC.
Position N 57°16' E 016°27'.

Length 30 m; draft 2.4 m.

Type: Sailing vessel. MMSI: 230108270.

Date/timePositionNaut miles runAvg speedWind from/ knotsBaromVisibWave heightAir tempDewpointWater temp
2017-Jun-24 00:00N 57°16' E 016°27'0 0.0
2017-Jun-23 23:30N 57°16' E 016°27'0 0.0
2017-Jun-23 23:00N 57°16' E 016°27'0 0.0
2017-Jun-23 22:30N 57°16' E 016°27'0 0.0
2017-Jun-23 22:00N 57°16' E 016°27'0 0.0
2017-Jun-23 21:30N 57°16' E 016°27'0 0.0
2017-Jun-23 21:00N 57°16' E 016°27'0 0.0
2017-Jun-23 20:27N 57°16' E 016°27'0 0.0
2017-Jun-23 20:00N 57°16' E 016°27'0 0.0
2017-Jun-23 19:30N 57°16' E 016°27'0 0.0
2017-Jun-23 19:00N 57°16' E 016°27'0 0.0
2017-Jun-23 18:30N 57°16' E 016°27'0 0.0
2017-Jun-23 18:00N 57°16' E 016°27'0 0.0
2017-Jun-23 17:30N 57°16' E 016°27'0 0.0
2017-Jun-23 17:00N 57°16' E 016°27'0 0.0
2017-Jun-23 16:30N 57°16' E 016°27'0 0.0
2017-Jun-23 16:00N 57°16' E 016°27'0 0.0
2017-Jun-23 15:30N 57°16' E 016°27'2 3.6
2017-Jun-23 15:00N 57°16' E 016°31'3 6.5
2017-Jun-23 14:30N 57°16' E 016°37'156 5.5
2017-Jun-22 10:22N 58°60' E 020°17'1 3.2
2017-Jun-22 09:59N 59°01' E 020°18'3 3.7
2017-Jun-22 09:15N 59°03' E 020°22'1 4.1
2017-Jun-22 09:01N 59°04' E 020°23'3 5.2
2017-Jun-22 08:30N 59°05' E 020°27'3 6.2
2017-Jun-22 08:00N 59°08' E 020°31'3 6.8
2017-Jun-22 07:30N 59°10' E 020°35'3 6.6
2017-Jun-22 07:00N 59°13' E 020°39'4 7.2
2017-Jun-22 06:30N 59°15' E 020°44'4 7.1
2017-Jun-22 06:00N 59°18' E 020°48'3 7.1
2017-Jun-22 05:31N 59°21' E 020°53'3 6.0
2017-Jun-22 05:00N 59°23' E 020°56'3 6.5
2017-Jun-22 04:30N 59°26' E 020°59'3 6.3
2017-Jun-22 04:00N 59°29' E 021°03'3 6.8
2017-Jun-22 03:30N 59°31' E 021°07'3 6.7
2017-Jun-22 03:00N 59°34' E 021°11'3 5.8
2017-Jun-22 02:31N 59°36' E 021°14'3 5.1
2017-Jun-22 02:01N 59°39' E 021°16'2 4.8
2017-Jun-22 01:30N 59°41' E 021°18'2 5.0
2017-Jun-22 01:01N 59°43' E 021°20'2 4.9
2017-Jun-22 00:30N 59°46' E 021°21'3 5.1
2017-Jun-22 00:00N 59°48' E 021°21'2 3.6
2017-Jun-21 23:31N 59°50' E 021°22'3 5.9
2017-Jun-21 23:00N 59°51' E 021°28'3 5.5
2017-Jun-21 22:31N 59°51' E 021°33'3 5.5
2017-Jun-21 22:00N 59°52' E 021°39'3 5.8
2017-Jun-21 21:31N 59°52' E 021°44'3 6.2
2017-Jun-21 21:00N 59°52' E 021°50'3 5.9
2017-Jun-21 20:30N 59°52' E 021°56'3 5.8
2017-Jun-21 20:00N 59°53' E 022°02'3 5.7
2017-Jun-21 19:31N 59°53' E 022°08'3 5.8
2017-Jun-21 19:01N 59°53' E 022°13'3 5.8
2017-Jun-21 18:31N 59°53' E 022°19'3 5.5
2017-Jun-21 18:00N 59°53' E 022°25'2 4.5
2017-Jun-21 17:31N 59°55' E 022°25'0 0.0
2017-Jun-21 16:59N 59°55' E 022°25'0 0.0
2017-Jun-21 16:29N 59°55' E 022°25'0 0.0
2017-Jun-21 15:59N 59°55' E 022°25'0 0.0
2017-Jun-21 15:29N 59°55' E 022°25'0 0.0
2017-Jun-21 14:59N 59°55' E 022°25'0 0.0
2017-Jun-21 14:00N 59°55' E 022°25'0 0.0
2017-Jun-21 13:30N 59°55' E 022°25'0 0.0
2017-Jun-21 13:00N 59°55' E 022°25'1 1.6
2017-Jun-21 12:30N 59°54' E 022°25'2 4.1
2017-Jun-21 12:00N 59°54' E 022°29'3 5.3
2017-Jun-21 11:30N 59°55' E 022°34'2 4.3
2017-Jun-21 11:00N 59°55' E 022°38'2 4.5
2017-Jun-21 10:30N 59°54' E 022°42'2 4.5
2017-Jun-21 10:00N 59°53' E 022°46'2 4.6
2017-Jun-21 09:30N 59°52' E 022°50'2 4.1
2017-Jun-21 09:00N 59°51' E 022°53'2 4.9
2017-Jun-21 08:30N 59°48' E 022°51'2 4.4
2017-Jun-21 08:00N 59°48' E 022°56'2 4.3
2017-Jun-21 07:30N 59°48' E 022°60'2 4.5
2017-Jun-21 07:00N 59°48' E 023°04'2 4.4
2017-Jun-21 06:30N 59°48' E 023°09'2 4.6
2017-Jun-21 06:00N 59°48' E 023°13'3 5.5
2017-Jun-21 05:30N 59°50' E 023°17'3 5.2
2017-Jun-21 05:00N 59°52' E 023°22'3 5.6
2017-Jun-21 04:30N 59°51' E 023°27'3 5.9
2017-Jun-21 04:00N 59°52' E 023°33'3 5.6
2017-Jun-21 03:30N 59°53' E 023°38'3 6.2
2017-Jun-21 03:00N 59°54' E 023°43'3 6.1
2017-Jun-21 02:30N 59°56' E 023°48'3 6.3
2017-Jun-21 02:00N 59°58' E 023°52'3 5.5
2017-Jun-21 01:30N 59°59' E 023°57'3 5.8
2017-Jun-21 01:00N 59°59' E 024°03'3 5.7
2017-Jun-21 00:30N 59°57' E 024°08'3 5.2
2017-Jun-21 00:01N 59°56' E 024°13'2 4.7
2017-Jun-20 23:30N 59°56' E 024°17'2 4.6
2017-Jun-20 23:00N 59°56' E 024°22'3 5.3
2017-Jun-20 22:30N 59°57' E 024°27'3 5.7
2017-Jun-20 22:00N 59°59' E 024°31'3 6.1
2017-Jun-20 21:30N 60°01' E 024°35'3 6.2
2017-Jun-20 21:00N 60°03' E 024°40'3 6.3
2017-Jun-20 20:30N 60°05' E 024°45'3 6.0
2017-Jun-20 20:00N 60°06' E 024°51'3 5.7
2017-Jun-20 19:30N 60°08' E 024°55'3 5.5
2017-Jun-20 19:00N 60°10' E 024°59'1 1.2
2017-Jun-20 18:29N 60°10' E 024°58'0 0.0
2017-Jun-20 17:58N 60°10' E 024°58'0 0.0
2017-Jun-20 17:28N 60°10' E 024°58'0 0.0
2017-Jun-20 16:58N 60°10' E 024°58'0 0.0
2017-Jun-20 16:28N 60°10' E 024°58'0 0.0
2017-Jun-20 15:58N 60°10' E 024°58'0 0.0
2017-Jun-20 15:28N 60°10' E 024°58'0 0.0
2017-Jun-20 14:58N 60°10' E 024°58'0 0.0
2017-Jun-20 13:58N 60°10' E 024°58'0 0.0
2017-Jun-20 13:28N 60°10' E 024°58'0 0.0
2017-Jun-20 12:58N 60°10' E 024°58'0 0.0
2017-Jun-20 12:28N 60°10' E 024°58'0 0.0
2017-Jun-20 11:58N 60°10' E 024°58'0 0.0
2017-Jun-20 11:28N 60°10' E 024°58'0 0.0
2017-Jun-20 10:58N 60°10' E 024°58'0 0.0
2017-Jun-20 10:28N 60°10' E 024°58'0 0.0
2017-Jun-20 09:58N 60°10' E 024°58'0 0.0
2017-Jun-20 09:28N 60°10' E 024°58'0 0.0
2017-Jun-20 08:58N 60°10' E 024°58'0 0.0
2017-Jun-20 08:28N 60°10' E 024°58'0 0.0
2017-Jun-20 07:58N 60°10' E 024°58'0 0.0
2017-Jun-20 07:28N 60°10' E 024°58'0 0.0
2017-Jun-20 06:58N 60°10' E 024°58'0 0.0
2017-Jun-20 06:28N 60°10' E 024°58'0 0.0
2017-Jun-20 05:58N 60°10' E 024°58'0 0.0
2017-Jun-20 05:28N 60°10' E 024°58'0 0.0
2017-Jun-20 04:58N 60°10' E 024°58'0 0.0
2017-Jun-20 04:28N 60°10' E 024°58'0 0.0
2017-Jun-20 03:58N 60°10' E 024°58'0 0.0
2017-Jun-20 03:25N 60°10' E 024°58'0 0.0
2017-Jun-20 02:58N 60°10' E 024°58'0 0.0
2017-Jun-20 02:28N 60°10' E 024°58'0 0.0
2017-Jun-20 01:58N 60°10' E 024°58'0 0.0
2017-Jun-20 01:28N 60°10' E 024°58'0 0.0
2017-Jun-20 00:58N 60°10' E 024°58'0 0.0
2017-Jun-20 00:28N 60°10' E 024°58'0 0.0
2017-Jun-19 23:58N 60°10' E 024°58'0 0.0
2017-Jun-19 23:28N 60°10' E 024°58'0 0.0
2017-Jun-19 22:58N 60°10' E 024°58'0 0.0
2017-Jun-19 22:28N 60°10' E 024°58'0 0.0
2017-Jun-19 21:58N 60°10' E 024°58'0 0.0
2017-Jun-19 21:28N 60°10' E 024°58'0 0.0
2017-Jun-19 20:58N 60°10' E 024°58'0 0.0
2017-Jun-19 20:28N 60°10' E 024°58'0 0.0
2017-Jun-19 20:00N 60°10' E 024°58'0 0.0
2017-Jun-19 19:29N 60°10' E 024°58'0 0.0
2017-Jun-19 18:58N 60°10' E 024°58'0 0.0
2017-Jun-19 18:28N 60°10' E 024°58'0 0.0
2017-Jun-19 17:58N 60°10' E 024°58'0 0.0
2017-Jun-19 17:28N 60°10' E 024°58'0 0.0
2017-Jun-19 16:58N 60°10' E 024°58'0 0.0
2017-Jun-19 16:28N 60°10' E 024°58'0 0.0
2017-Jun-19 15:58N 60°10' E 024°58'0 0.0
2017-Jun-19 15:25N 60°10' E 024°58'0 0.0
2017-Jun-19 14:58N 60°10' E 024°58'0 0.0
2017-Jun-19 13:58N 60°10' E 024°58'0 0.0
2017-Jun-19 13:28N 60°10' E 024°58'0 0.0
2017-Jun-19 12:58N 60°10' E 024°58'0 0.0
2017-Jun-19 12:28N 60°10' E 024°58'0 0.0
2017-Jun-19 11:58N 60°10' E 024°58'0 0.0
2017-Jun-19 11:28N 60°10' E 024°58'0 0.0
2017-Jun-19 10:58N 60°10' E 024°58'0 0.0
2017-Jun-19 10:28N 60°10' E 024°58'0 0.0
2017-Jun-19 09:58N 60°10' E 024°58'0 0.0
2017-Jun-19 09:28N 60°10' E 024°58'0 0.0
2017-Jun-19 08:58N 60°10' E 024°58'0 0.0
2017-Jun-19 08:28N 60°10' E 024°58'0 0.0
2017-Jun-19 07:58N 60°10' E 024°58'0 0.0
2017-Jun-19 07:28N 60°10' E 024°58'0 0.0
2017-Jun-19 06:58N 60°10' E 024°58'0 0.0
2017-Jun-19 06:28N 60°10' E 024°58'0 0.0
2017-Jun-19 05:58N 60°10' E 024°58'0 0.0
2017-Jun-19 05:28N 60°10' E 024°58'0 0.0
2017-Jun-19 04:58N 60°10' E 024°58'0 0.0
2017-Jun-19 04:28N 60°10' E 024°58'0 0.0
2017-Jun-19 03:58N 60°10' E 024°58'0 0.0
2017-Jun-19 03:28N 60°10' E 024°58'0 0.0
2017-Jun-19 02:58N 60°10' E 024°58'0 0.0
2017-Jun-19 02:28N 60°10' E 024°58'0 0.0
2017-Jun-19 01:58N 60°10' E 024°58'0 0.0
2017-Jun-19 01:25N 60°10' E 024°58'0 0.0
2017-Jun-19 00:58N 60°10' E 024°58'0 0.0
2017-Jun-19 00:28N 60°10' E 024°58'0 0.0
2017-Jun-18 23:55N 60°10' E 024°58'0 0.0
2017-Jun-18 23:28N 60°10' E 024°58'0 0.0
2017-Jun-18 22:58N 60°10' E 024°58'0 0.0
2017-Jun-18 22:28N 60°10' E 024°58'0 0.0
2017-Jun-18 21:58N 60°10' E 024°58'0 0.0
2017-Jun-18 21:28N 60°10' E 024°58'0 0.0
2017-Jun-18 20:58N 60°10' E 024°58'0 0.0
2017-Jun-18 20:28N 60°10' E 024°58'0 0.0
2017-Jun-18 19:58N 60°10' E 024°58'0 0.0
2017-Jun-18 19:25N 60°10' E 024°58'0 0.0
2017-Jun-18 18:58N 60°10' E 024°58'0 0.0
2017-Jun-18 18:28N 60°10' E 024°58'0 0.0
2017-Jun-18 17:55N 60°10' E 024°58'0 0.0
2017-Jun-18 17:28N 60°10' E 024°58'0 0.0
2017-Jun-18 16:58N 60°10' E 024°58'0 0.0
2017-Jun-18 16:28N 60°10' E 024°58'0 0.0
2017-Jun-18 15:58N 60°10' E 024°58'0 0.0
2017-Jun-18 15:25N 60°10' E 024°58'0 0.0
2017-Jun-18 14:58N 60°10' E 024°58'0 0.0
2017-Jun-18 13:58N 60°10' E 024°58'0 0.0
2017-Jun-18 13:28N 60°10' E 024°58'0 0.0
2017-Jun-18 12:58N 60°10' E 024°58'0 0.0
2017-Jun-18 12:28N 60°10' E 024°58'0 0.0
2017-Jun-18 11:58N 60°10' E 024°58'0 0.0
2017-Jun-18 11:28N 60°10' E 024°58'0 0.0
2017-Jun-18 10:58N 60°10' E 024°58'0 0.0
2017-Jun-18 10:28N 60°10' E 024°58'0 0.0
2017-Jun-18 09:58N 60°10' E 024°58'0 0.0
2017-Jun-18 09:25N 60°10' E 024°58'0 0.0
2017-Jun-18 08:58N 60°10' E 024°58'0 0.0
2017-Jun-18 08:28N 60°10' E 024°58'0 0.0
2017-Jun-18 07:58N 60°10' E 024°58'0 0.0
2017-Jun-18 07:25N 60°10' E 024°58'0 0.0
2017-Jun-18 06:58N 60°10' E 024°58'0 0.0
2017-Jun-18 06:28N 60°10' E 024°58'0 0.0
2017-Jun-18 05:58N 60°10' E 024°58'0 0.0
2017-Jun-18 05:28N 60°10' E 024°58'0 0.0
2017-Jun-18 04:58N 60°10' E 024°58'0 0.0
2017-Jun-18 04:28N 60°10' E 024°58'0 0.0
2017-Jun-18 03:58N 60°10' E 024°58'0 0.0
2017-Jun-18 03:28N 60°10' E 024°58'0 0.0
2017-Jun-18 02:58N 60°10' E 024°58'0 0.0
2017-Jun-18 02:28N 60°10' E 024°58'0 0.0
2017-Jun-18 01:58N 60°10' E 024°58'0 0.0
2017-Jun-18 01:28N 60°10' E 024°58'0 0.0
2017-Jun-18 00:58N 60°10' E 024°58'0 0.0
2017-Jun-18 00:28N 60°10' E 024°58'0 0.0
2017-Jun-17 23:55N 60°10' E 024°58'0 0.0
2017-Jun-17 23:28N 60°10' E 024°58'0 0.0
2017-Jun-17 22:58N 60°10' E 024°58'0 0.0
2017-Jun-17 22:28N 60°10' E 024°58'0 0.0
2017-Jun-17 21:58N 60°10' E 024°58'0 0.0
2017-Jun-17 21:25N 60°10' E 024°58'0 0.0
2017-Jun-17 20:58N 60°10' E 024°58'0 0.0
2017-Jun-17 20:28N 60°10' E 024°58'0 0.0
2017-Jun-17 19:58N 60°10' E 024°58'0 0.0
2017-Jun-17 19:29N 60°10' E 024°58'0 0.0
2017-Jun-17 18:58N 60°10' E 024°58'0 0.0
2017-Jun-17 18:28N 60°10' E 024°58'0 0.0
2017-Jun-17 17:58N 60°10' E 024°58'0 0.0
2017-Jun-17 17:28N 60°10' E 024°58'0 0.0
2017-Jun-17 16:58N 60°10' E 024°58'0 0.0
2017-Jun-17 16:28N 60°10' E 024°58'0 0.0
2017-Jun-17 15:55N 60°10' E 024°58'0 0.0
2017-Jun-17 15:28N 60°10' E 024°58'0 0.0
2017-Jun-17 14:58N 60°10' E 024°58'0 0.0
2017-Jun-17 14:28N 60°10' E 024°58'0 0.0
2017-Jun-17 13:28N 60°10' E 024°58'0 0.0
2017-Jun-17 12:58N 60°10' E 024°58'0 0.0
2017-Jun-17 12:28N 60°10' E 024°58'0 0.0
2017-Jun-17 11:58N 60°10' E 024°58'0 0.0
2017-Jun-17 11:28N 60°10' E 024°58'0 0.0
2017-Jun-17 10:58N 60°10' E 024°58'0 0.0
2017-Jun-17 10:25N 60°10' E 024°58'0 0.0
2017-Jun-17 09:58N 60°10' E 024°58'0 0.0
2017-Jun-17 09:28N 60°10' E 024°58'0 0.0
2017-Jun-17 08:58N 60°10' E 024°58'0 0.0
2017-Jun-17 08:25N 60°10' E 024°58'0 0.0
2017-Jun-17 07:58N 60°10' E 024°58'0 0.0
2017-Jun-17 07:28N 60°10' E 024°58'0 0.0
2017-Jun-17 06:58N 60°10' E 024°58'0 0.0
2017-Jun-17 06:28N 60°10' E 024°58'0 0.0
2017-Jun-17 05:58N 60°10' E 024°58'0 0.0
2017-Jun-17 05:25N 60°10' E 024°58'0 0.0
2017-Jun-17 04:58N 60°10' E 024°58'0 0.0
2017-Jun-17 04:28N 60°10' E 024°58'0 0.0
2017-Jun-17 03:58N 60°10' E 024°58'0 0.0
2017-Jun-17 03:28N 60°10' E 024°58'0 0.0
2017-Jun-17 02:58N 60°10' E 024°58'0 0.0
2017-Jun-17 02:28N 60°10' E 024°58'0 0.0
2017-Jun-17 01:58N 60°10' E 024°58'0 0.0
2017-Jun-17 01:28N 60°10' E 024°58'0 0.0
2017-Jun-17 00:58N 60°10' E 024°58'0 0.0
2017-Jun-17 00:28N 60°10' E 024°58'0 0.0
2017-Jun-16 23:58N 60°10' E 024°58'0 0.0
2017-Jun-16 23:29N 60°10' E 024°58'0 0.0
2017-Jun-16 22:58N 60°10' E 024°58'0 0.0
2017-Jun-16 22:28N 60°10' E 024°58'0 0.0
2017-Jun-16 21:55N 60°10' E 024°58'0 0.0
2017-Jun-16 21:25N 60°10' E 024°58'0 0.0
2017-Jun-16 20:58N 60°10' E 024°58'0 0.0
2017-Jun-16 20:28N 60°10' E 024°58'0 0.0
2017-Jun-16 19:58N 60°10' E 024°58'0 0.0
2017-Jun-16 19:28N 60°10' E 024°58'0 0.0
2017-Jun-16 18:58N 60°10' E 024°58'0 0.0
2017-Jun-16 18:28N 60°10' E 024°58'0 0.0
2017-Jun-16 17:58N 60°10' E 024°58'0 0.0
2017-Jun-16 17:28N 60°10' E 024°58'0 0.0
2017-Jun-16 16:58N 60°10' E 024°58'0 0.0
2017-Jun-16 16:28N 60°10' E 024°58'0 0.0
2017-Jun-16 15:58N 60°10' E 024°58'0 0.0
2017-Jun-16 15:28N 60°10' E 024°58'0 0.0
2017-Jun-16 14:58N 60°10' E 024°58'0 0.0
2017-Jun-16 13:58N 60°10' E 024°58'0 0.0
2017-Jun-16 13:26N 60°10' E 024°58'0 0.0
2017-Jun-16 12:58N 60°10' E 024°58'0 0.0
2017-Jun-16 12:28N 60°10' E 024°58'0 0.0
2017-Jun-16 11:58N 60°10' E 024°58'0 0.0
2017-Jun-16 11:28N 60°10' E 024°58'0 0.0
2017-Jun-16 10:58N 60°10' E 024°58'0 0.0
2017-Jun-16 10:28N 60°10' E 024°58'0 0.0
2017-Jun-16 09:58N 60°10' E 024°58'0 0.0
2017-Jun-16 09:28N 60°10' E 024°58'0 0.0
2017-Jun-16 08:58N 60°10' E 024°58'0 0.0
2017-Jun-16 08:28N 60°10' E 024°58'0 0.0
2017-Jun-16 07:58N 60°10' E 024°58'0 0.0
2017-Jun-16 07:28N 60°10' E 024°58'0 0.0
2017-Jun-16 06:55N 60°10' E 024°58'0 0.0
2017-Jun-16 06:28N 60°10' E 024°58'0 0.0
2017-Jun-16 05:58N 60°10' E 024°58'0 0.0
2017-Jun-16 05:22N 60°10' E 024°58'0 0.0
2017-Jun-16 04:58N 60°10' E 024°58'0 0.0
2017-Jun-16 04:28N 60°10' E 024°58'0 0.0
2017-Jun-16 03:58N 60°10' E 024°58'0 0.0
2017-Jun-16 03:28N 60°10' E 024°58'0 0.0
2017-Jun-16 02:58N 60°10' E 024°58'0 0.0
2017-Jun-16 02:28N 60°10' E 024°58'0 0.0
2017-Jun-16 01:58N 60°10' E 024°58'0 0.0
2017-Jun-16 01:28N 60°10' E 024°58'0 0.0
2017-Jun-16 00:58N 60°10' E 024°58'0 0.0
2017-Jun-16 00:28N 60°10' E 024°58'0 0.0
2017-Jun-15 23:58N 60°10' E 024°58'0 0.0
2017-Jun-15 23:28N 60°10' E 024°58'0 0.0
2017-Jun-15 22:58N 60°10' E 024°58'0 0.0
2017-Jun-15 22:28N 60°10' E 024°58'0 0.0
2017-Jun-15 21:58N 60°10' E 024°58'0 0.0
2017-Jun-15 21:28N 60°10' E 024°58'0 0.0
2017-Jun-15 20:58N 60°10' E 024°58'0 0.0
2017-Jun-15 20:28N 60°10' E 024°58'0 0.0
2017-Jun-15 19:58N 60°10' E 024°58'0 0.0
2017-Jun-15 19:28N 60°10' E 024°58'0 0.0
2017-Jun-15 18:58N 60°10' E 024°58'0 0.0
2017-Jun-15 18:28N 60°10' E 024°58'0 0.0
2017-Jun-15 17:58N 60°10' E 024°58'0 0.0
2017-Jun-15 17:28N 60°10' E 024°58'0 0.0
2017-Jun-15 16:58N 60°10' E 024°58'0 0.0
2017-Jun-15 16:30N 60°10' E 024°58'0 0.0
2017-Jun-15 15:58N 60°10' E 024°58'0 0.0
2017-Jun-15 15:29N 60°10' E 024°58'0 0.0
2017-Jun-15 14:58N 60°10' E 024°58'0 0.0
2017-Jun-15 13:58N 60°10' E 024°58'0 0.0
2017-Jun-15 13:28N 60°10' E 024°58'0 0.0
2017-Jun-15 12:58N 60°10' E 024°58'0 0.0
2017-Jun-15 12:30N 60°10' E 024°58'0 0.0
2017-Jun-15 11:59N 60°10' E 024°58'0 0.0
2017-Jun-15 11:28N 60°10' E 024°58'0 0.0
2017-Jun-15 11:00N 60°10' E 024°58'0 0.0
2017-Jun-15 10:28N 60°10' E 024°58'0 0.0
2017-Jun-15 09:58N 60°10' E 024°58'0 0.0
2017-Jun-14 19:47N 60°10' E 024°58'0 0.0
2017-Jun-14 19:29N 60°10' E 024°58'0 0.0
2017-Jun-14 18:58N 60°10' E 024°58'0 0.0
2017-Jun-14 18:29N 60°10' E 024°58'0 0.0
2017-Jun-14 18:00N 60°10' E 024°58'0 0.0
2017-Jun-14 17:28N 60°10' E 024°58'0 0.0
2017-Jun-14 16:58N 60°10' E 024°58'0 0.0
2017-Jun-14 16:28N 60°10' E 024°58'0 0.0
2017-Jun-14 15:58N 60°10' E 024°58'0 0.0
2017-Jun-14 15:28N 60°10' E 024°58'0 0.0
2017-Jun-14 14:52N 60°10' E 024°58'0 0.0
2017-Jun-14 14:28N 60°10' E 024°58'0 0.0
2017-Jun-14 13:28N 60°10' E 024°58'0 0.0
2017-Jun-14 12:52N 60°10' E 024°58'0 0.0
2017-Jun-14 12:28N 60°10' E 024°58'0 0.0
2017-Jun-14 11:58N 60°10' E 024°58'0 0.0
2017-Jun-14 11:25N 60°10' E 024°58'0 0.0
2017-Jun-14 10:55N 60°10' E 024°58'0 0.0
2017-Jun-14 10:28N 60°10' E 024°58'0 0.0
2017-Jun-14 09:58N 60°10' E 024°58'0 0.0
2017-Jun-14 09:28N 60°10' E 024°58'0 0.0
2017-Jun-14 08:58N 60°10' E 024°58'0 0.0
2017-Jun-14 08:22N 60°10' E 024°58'0 0.0
2017-Jun-14 07:58N 60°10' E 024°58'0 0.0
2017-Jun-14 07:28N 60°10' E 024°58'0 0.0
2017-Jun-14 06:58N 60°10' E 024°58'0 0.0
2017-Jun-14 06:25N 60°10' E 024°58'0 0.0
2017-Jun-14 05:58N 60°10' E 024°58'0 0.0
2017-Jun-14 05:28N 60°10' E 024°58'0 0.0
2017-Jun-14 04:58N 60°10' E 024°58'0 0.0
2017-Jun-14 04:28N 60°10' E 024°58'0 0.0
2017-Jun-14 03:58N 60°10' E 024°58'0 0.0
2017-Jun-14 03:28N 60°10' E 024°58'0 0.0
2017-Jun-14 02:58N 60°10' E 024°58'0 0.0
2017-Jun-14 02:28N 60°10' E 024°58'0 0.0
2017-Jun-14 01:55N 60°10' E 024°58'0 0.0
2017-Jun-14 01:28N 60°10' E 024°58'0 0.0
2017-Jun-14 00:58N 60°10' E 024°58'0 0.0
2017-Jun-14 00:28N 60°10' E 024°58'  

Dump ship's entire track history